Time;durP1;ratioP1;P1;durP2;ratioP2;P2;SDS_P1;SDS_P2;PMS_P1;PMS_P2;Temp;Humidity;BMP_temperature;BMP_pressure;BME280_temperature;BME280_humidity;BME280_pressure;Samples;Min_cycle;Max_cycle;Signal;HPM_P1;HPM_P2
2022/09/04 00:02:37;;;;;;;0.73;0.50;;;17.30;99.90;;;;;;5117806;28;20448;-74
2022/09/04 00:05:12;;;;;;;0.77;0.50;;;17.30;99.90;;;;;;5116716;28;20804;-75
2022/09/04 00:07:52;;;;;;;0.83;0.50;;;17.20;99.90;;;;;;5117348;28;20571;-75
2022/09/04 00:10:28;;;;;;;0.70;0.50;;;17.20;99.90;;;;;;5115886;28;20780;-74
2022/09/04 00:13:02;;;;;;;0.80;0.50;;;17.20;99.90;;;;;;5121933;28;20440;-74
2022/09/04 00:15:34;;;;;;;1.23;0.87;;;17.20;99.90;;;;;;5120044;28;20456;-74
2022/09/04 00:18:08;;;;;;;1.13;0.57;;;17.20;99.90;;;;;;5121633;28;20466;-75
2022/09/04 00:20:40;;;;;;;2.43;0.60;;;17.20;99.90;;;;;;5120227;28;20456;-74
2022/09/04 00:23:17;;;;;;;1.10;0.60;;;17.20;99.90;;;;;;5122179;28;20777;-75
2022/09/04 00:25:52;;;;;;;0.93;0.70;;;17.30;99.90;;;;;;5121699;28;20860;-74
2022/09/04 00:28:30;;;;;;;1.93;0.60;;;17.20;99.90;;;;;;5122756;28;20527;-74
2022/09/04 00:31:04;;;;;;;1.10;0.60;;;17.30;99.90;;;;;;5122742;28;20436;-74
2022/09/04 00:33:41;;;;;;;1.13;0.93;;;17.30;99.90;;;;;;5123003;28;20638;-74
2022/09/04 00:36:09;;;;;;;1.30;0.80;;;17.50;99.90;;;;;;5125049;28;20538;-74
2022/09/04 00:38:43;;;;;;;1.07;0.60;;;17.50;99.90;;;;;;5122068;28;20441;-75
2022/09/04 00:41:21;;;;;;;1.07;0.63;;;17.50;99.90;;;;;;5122840;28;20493;-75
2022/09/04 00:44:01;;;;;;;1.60;0.70;;;17.60;99.90;;;;;;5119810;28;20478;-75
2022/09/04 00:46:50;;;;;;;1.03;0.60;;;17.60;99.90;;;;;;5121295;28;20504;-75
2022/09/04 00:49:45;;;;;;;1.20;0.73;;;17.50;99.90;;;;;;5120035;28;20455;-75
2022/09/04 00:52:25;;;;;;;0.77;0.60;;;17.50;99.90;;;;;;5120196;28;20879;-74
2022/09/04 00:55:07;;;;;;;1.20;0.70;;;17.50;99.90;;;;;;5119758;28;20468;-75
2022/09/04 00:58:15;;;;;;;0.90;0.60;;;17.50;99.90;;;;;;5121598;28;20451;-76
2022/09/04 01:00:46;;;;;;;2.20;0.80;;;17.40;99.90;;;;;;5120333;28;20539;-76
2022/09/04 01:03:30;;;;;;;1.70;0.67;;;17.40;99.90;;;;;;5121315;28;20440;-76
2022/09/04 01:06:14;;;;;;;0.80;0.60;;;17.40;99.90;;;;;;5121265;28;20436;-76
2022/09/04 01:09:15;;;;;;;0.93;0.60;;;17.50;99.90;;;;;;5118790;28;20529;-76
2022/09/04 01:11:51;;;;;;;0.80;0.60;;;17.50;99.90;;;;;;5119470;28;20449;-75
2022/09/04 01:14:33;;;;;;;0.90;0.70;;;17.50;99.90;;;;;;5119286;28;20457;-76
2022/09/04 01:17:11;;;;;;;2.30;0.70;;;17.40;99.90;;;;;;5120255;28;20444;-76
2022/09/04 01:19:49;;;;;;;1.10;0.60;;;17.50;99.90;;;;;;5119456;28;20948;-75
2022/09/04 01:22:51;;;;;;;1.03;0.67;;;17.70;99.90;;;;;;5119472;28;20436;-76
2022/09/04 01:25:34;;;;;;;1.20;0.60;;;17.70;99.90;;;;;;5120214;28;20494;-76
2022/09/04 01:28:09;;;;;;;0.80;0.57;;;17.50;99.90;;;;;;5119794;28;20476;-75
2022/09/04 01:30:44;;;;;;;0.90;0.60;;;17.30;99.90;;;;;;5119783;28;20552;-75
2022/09/04 01:33:19;;;;;;;0.80;0.60;;;17.30;99.90;;;;;;5120644;28;20943;-75
2022/09/04 01:35:55;;;;;;;1.00;0.60;;;17.40;99.90;;;;;;5119891;28;20505;-76
2022/09/04 01:38:33;;;;;;;1.10;0.70;;;17.50;99.90;;;;;;5119755;28;20711;-75
2022/09/04 01:41:07;;;;;;;0.80;0.60;;;17.40;99.90;;;;;;5118574;28;20509;-75
2022/09/04 01:43:35;;;;;;;0.90;0.60;;;17.40;99.90;;;;;;5119226;28;20504;-74
2022/09/04 01:46:27;;;;;;;0.90;0.60;;;17.50;99.90;;;;;;5118604;28;20445;-75
2022/09/04 01:49:03;;;;;;;0.83;0.60;;;17.50;99.90;;;;;;5119107;28;20477;-74
2022/09/04 01:51:38;;;;;;;0.90;0.60;;;17.50;99.90;;;;;;5118659;28;20439;-74
2022/09/04 01:54:19;;;;;;;0.90;0.60;;;17.40;99.90;;;;;;5119916;28;20432;-74
2022/09/04 01:56:56;;;;;;;0.90;0.60;;;17.30;99.90;;;;;;5118523;28;20444;-74
2022/09/04 01:59:29;;;;;;;0.73;0.60;;;17.20;99.90;;;;;;5119913;28;20943;-74
2022/09/04 02:02:04;;;;;;;0.93;0.60;;;17.20;99.90;;;;;;5117768;28;20474;-74
2022/09/04 02:04:39;;;;;;;0.87;0.60;;;17.10;99.90;;;;;;5117978;28;20436;-74
2022/09/04 02:07:19;;;;;;;1.10;0.67;;;17.00;99.90;;;;;;5118473;28;20488;-75
2022/09/04 02:09:54;;;;;;;0.70;0.50;;;17.00;99.90;;;;;;5119190;28;20432;-74
2022/09/04 02:12:29;;;;;;;0.90;0.50;;;17.00;99.90;;;;;;5118814;28;20471;-74
2022/09/04 02:15:06;;;;;;;1.10;0.70;;;17.00;99.90;;;;;;5119079;28;20516;-74
2022/09/04 02:17:44;;;;;;;1.47;0.60;;;17.00;99.90;;;;;;5118761;28;20535;-74
2022/09/04 02:20:23;;;;;;;1.00;0.53;;;16.90;99.90;;;;;;5119219;28;20543;-74
2022/09/04 02:22:59;;;;;;;1.00;0.60;;;17.00;99.90;;;;;;5118675;28;20464;-74
2022/09/04 02:25:30;;;;;;;1.30;0.67;;;17.10;99.90;;;;;;5119030;28;20512;-73
2022/09/04 02:28:07;;;;;;;0.83;0.60;;;17.30;99.90;;;;;;5118986;28;20579;-74
2022/09/04 02:30:42;;;;;;;0.87;0.60;;;17.40;99.90;;;;;;5117181;28;20477;-74
2022/09/04 02:33:14;;;;;;;0.80;0.60;;;17.40;99.90;;;;;;5119156;28;20444;-73
2022/09/04 02:35:47;;;;;;;0.70;0.50;;;17.30;99.90;;;;;;5116027;28;20450;-74
2022/09/04 02:38:24;;;;;;;1.00;0.50;;;17.30;99.90;;;;;;5117538;28;20441;-74
2022/09/04 02:40:55;;;;;;;0.83;0.60;;;17.20;99.90;;;;;;5115381;28;20899;-75
2022/09/04 02:43:35;;;;;;;0.80;0.63;;;17.10;99.90;;;;;;5116677;28;20502;-74
2022/09/04 02:46:10;;;;;;;0.70;0.50;;;17.10;99.90;;;;;;5116902;28;20456;-74
2022/09/04 02:48:53;;;;;;;1.50;0.60;;;17.10;99.90;;;;;;5116654;28;20524;-74
2022/09/04 02:51:32;;;;;;;1.23;0.50;;;17.00;99.90;;;;;;5116019;28;20449;-74
2022/09/04 02:54:04;;;;;;;1.50;0.60;;;16.90;99.90;;;;;;5117776;28;20444;-74
2022/09/04 02:56:42;;;;;;;0.73;0.53;;;16.80;99.90;;;;;;5116598;28;20509;-74
2022/09/04 02:59:30;;;;;;;0.70;0.50;;;16.70;99.90;;;;;;5117593;28;20460;-74
2022/09/04 03:02:00;;;;;;;0.70;0.50;;;16.70;99.90;;;;;;5097643;28;20567;-74
2022/09/04 03:04:35;;;;;;;0.90;0.70;;;16.70;99.90;;;;;;5117866;28;20478;-75
2022/09/04 03:07:09;;;;;;;1.80;0.60;;;16.70;99.90;;;;;;5117456;28;20484;-74
2022/09/04 03:09:41;;;;;;;0.80;0.53;;;16.90;99.90;;;;;;5117226;28;20727;-74
2022/09/04 03:12:25;;;;;;;0.90;0.60;;;16.90;99.90;;;;;;5116289;28;20488;-74
2022/09/04 03:14:58;;;;;;;0.90;0.53;;;16.80;99.90;;;;;;5117578;28;20877;-74
2022/09/04 03:17:34;;;;;;;0.80;0.50;;;16.80;99.90;;;;;;5115835;28;20892;-74
2022/09/04 03:20:07;;;;;;;0.87;0.60;;;16.80;99.90;;;;;;5117445;28;20490;-74
2022/09/04 03:22:43;;;;;;;0.90;0.60;;;16.70;99.90;;;;;;5115735;28;20456;-74
2022/09/04 03:25:33;;;;;;;0.87;0.60;;;16.60;99.90;;;;;;5116545;28;20444;-74
2022/09/04 03:28:01;;;;;;;0.70;0.50;;;16.50;99.90;;;;;;5116820;28;20484;-74
2022/09/04 03:30:32;;;;;;;0.70;0.50;;;16.40;99.90;;;;;;5116482;28;20455;-73
2022/09/04 03:33:05;;;;;;;0.80;0.60;;;16.30;99.90;;;;;;5117150;28;20876;-74
2022/09/04 03:35:39;;;;;;;1.10;0.60;;;16.40;99.90;;;;;;5115545;28;20813;-74
2022/09/04 03:38:17;;;;;;;0.90;0.60;;;16.60;99.90;;;;;;5117565;28;20437;-74
2022/09/04 03:40:59;;;;;;;0.73;0.50;;;16.60;99.90;;;;;;5115467;28;20480;-74
2022/09/04 03:43:41;;;;;;;0.90;0.53;;;16.60;99.90;;;;;;5117674;28;20467;-74
2022/09/04 03:46:22;;;;;;;0.63;0.40;;;16.60;99.90;;;;;;5115548;28;20453;-73
2022/09/04 03:49:01;;;;;;;0.67;0.60;;;16.70;99.90;;;;;;5117130;28;20480;-73
2022/09/04 03:51:43;;;;;;;1.47;1.00;;;16.80;99.90;;;;;;5116345;28;20456;-75
2022/09/04 03:54:27;;;;;;;0.80;0.43;;;16.90;99.90;;;;;;5117519;28;20445;-73
2022/09/04 03:57:26;;;;;;;0.80;0.57;;;16.80;99.90;;;;;;5115938;28;20482;-73
2022/09/04 04:00:05;;;;;;;0.70;0.50;;;16.80;99.90;;;;;;5116767;28;20445;-73
2022/09/04 04:02:45;;;;;;;0.90;0.70;;;16.90;99.90;;;;;;5115486;28;20452;-73
2022/09/04 04:05:25;;;;;;;0.80;0.50;;;16.80;99.90;;;;;;5117236;28;20805;-73
2022/09/04 04:08:03;;;;;;;0.83;0.50;;;16.90;99.90;;;;;;5116388;28;20495;-73
2022/09/04 04:10:44;;;;;;;0.70;0.50;;;16.90;99.90;;;;;;5115531;28;21074;-72
2022/09/04 04:13:24;;;;;;;0.90;0.50;;;16.90;99.90;;;;;;5117176;28;20470;-73
2022/09/04 04:16:07;;;;;;;0.70;0.57;;;16.90;99.90;;;;;;5114632;28;20459;-73
2022/09/04 04:18:54;;;;;;;0.80;0.50;;;16.70;99.90;;;;;;5116701;28;20464;-73
2022/09/04 04:21:38;;;;;;;0.73;0.50;;;16.60;99.90;;;;;;5114032;28;20452;-73
2022/09/04 04:24:37;;;;;;;0.77;0.40;;;16.60;99.90;;;;;;5116895;28;20479;-74
2022/09/04 04:27:24;;;;;;;1.10;0.50;;;16.70;99.90;;;;;;5115932;28;20452;-73
2022/09/04 04:30:05;;;;;;;0.80;0.60;;;16.70;99.90;;;;;;5117232;28;20436;-73
2022/09/04 04:32:54;;;;;;;0.70;0.43;;;16.60;99.90;;;;;;5115988;28;20459;-73
2022/09/04 04:35:35;;;;;;;0.70;0.47;;;16.60;99.90;;;;;;5117472;28;20445;-73
2022/09/04 04:38:23;;;;;;;0.87;0.63;;;16.60;99.90;;;;;;5116925;28;20440;-73
2022/09/04 04:41:24;;;;;;;0.90;0.50;;;16.60;99.90;;;;;;5114816;28;20986;-74
2022/09/04 04:44:04;;;;;;;0.60;0.50;;;16.70;99.90;;;;;;5072553;28;20452;-73
2022/09/04 04:46:45;;;;;;;1.63;0.70;;;16.70;99.90;;;;;;5114397;28;20452;-73
2022/09/04 04:49:27;;;;;;;0.90;0.50;;;16.60;99.90;;;;;;5117098;28;20544;-73
2022/09/04 04:52:19;;;;;;;0.60;0.50;;;16.60;99.90;;;;;;5116182;28;20455;-73
2022/09/04 04:55:10;;;;;;;0.70;0.50;;;16.50;99.90;;;;;;5116367;28;20486;-73
2022/09/04 04:57:48;;;;;;;1.17;0.67;;;16.50;99.90;;;;;;5116375;28;20505;-73
2022/09/04 05:00:18;;;;;;;0.70;0.50;;;16.60;99.90;;;;;;5119242;28;20444;-73
2022/09/04 05:02:56;;;;;;;0.90;0.50;;;16.60;99.90;;;;;;5118400;28;20453;-73
2022/09/04 05:05:48;;;;;;;1.00;0.50;;;16.60;99.90;;;;;;5120780;28;20803;-73
2022/09/04 05:08:27;;;;;;;0.77;0.53;;;16.60;99.90;;;;;;5120136;28;20596;-73
2022/09/04 05:11:00;;;;;;;0.80;0.53;;;16.60;99.90;;;;;;5118746;28;20845;-73
2022/09/04 05:13:37;;;;;;;0.80;0.50;;;16.60;99.90;;;;;;5120671;28;20501;-73
2022/09/04 05:16:12;;;;;;;0.60;0.50;;;16.70;99.90;;;;;;5118670;28;20502;-73
2022/09/04 05:18:47;;;;;;;0.80;0.50;;;16.70;99.90;;;;;;5119000;28;20535;-73
2022/09/04 05:21:20;;;;;;;1.00;0.57;;;16.80;99.90;;;;;;5116881;28;20443;-73
2022/09/04 05:23:54;;;;;;;1.73;0.70;;;16.80;99.90;;;;;;5119353;28;20486;-73
2022/09/04 05:26:33;;;;;;;0.83;0.60;;;16.80;99.90;;;;;;5118088;28;20460;-73
2022/09/04 05:29:06;;;;;;;0.80;0.50;;;16.80;99.90;;;;;;5119221;28;20618;-73
2022/09/04 05:31:44;;;;;;;1.00;0.60;;;16.70;99.90;;;;;;5117493;28;20551;-73
2022/09/04 05:34:22;;;;;;;1.30;0.50;;;16.70;99.90;;;;;;5120045;28;20476;-73
2022/09/04 05:36:59;;;;;;;0.80;0.60;;;16.70;99.90;;;;;;5118250;28;20511;-73
2022/09/04 05:39:30;;;;;;;1.00;0.60;;;16.70;99.90;;;;;;5120706;28;20441;-73
2022/09/04 05:42:21;;;;;;;0.90;0.60;;;16.80;99.90;;;;;;5118826;28;20456;-73
2022/09/04 05:44:58;;;;;;;0.80;0.60;;;16.80;99.90;;;;;;5118663;28;20470;-73
2022/09/04 05:47:43;;;;;;;1.00;0.80;;;16.80;99.90;;;;;;5119230;28;20725;-74
2022/09/04 05:50:38;;;;;;;0.90;0.60;;;16.80;99.90;;;;;;5119950;28;20884;-74
2022/09/04 05:53:23;;;;;;;0.70;0.50;;;16.80;99.90;;;;;;5119050;28;20525;-73
2022/09/04 05:56:17;;;;;;;1.00;0.70;;;16.80;99.90;;;;;;5116092;28;20505;-73
2022/09/04 05:59:13;;;;;;;1.40;0.53;;;16.70;99.90;;;;;;5119516;28;20440;-74
2022/09/04 06:02:04;;;;;;;0.80;0.53;;;16.70;99.90;;;;;;5117904;28;20478;-75
2022/09/04 06:05:02;;;;;;;0.90;0.50;;;16.80;99.90;;;;;;5118867;28;20448;-74
2022/09/04 06:07:38;;;;;;;1.10;0.60;;;16.80;99.90;;;;;;5111786;28;20496;-74
2022/09/04 06:10:13;;;;;;;1.03;0.70;;;16.90;99.90;;;;;;5118268;28;20535;-75
2022/09/04 06:13:13;;;;;;;0.80;0.57;;;16.90;99.90;;;;;;5117590;28;20456;-74
2022/09/04 06:15:55;;;;;;;0.97;0.53;;;17.00;99.90;;;;;;5079882;28;20453;-75
2022/09/04 06:18:42;;;;;;;0.80;0.60;;;17.00;99.90;;;;;;5118560;28;20437;-74
2022/09/04 06:21:26;;;;;;;4.43;0.60;;;17.00;99.90;;;;;;5117476;28;20453;-74
2022/09/04 06:24:14;;;;;;;4.20;0.70;;;16.90;99.90;;;;;;5118914;28;20459;-74
2022/09/04 06:26:57;;;;;;;1.27;0.60;;;16.90;99.90;;;;;;5118251;28;20505;-74
2022/09/04 06:29:46;;;;;;;0.97;0.60;;;17.00;99.90;;;;;;5119299;28;20480;-74
2022/09/04 06:32:53;;;;;;;1.20;0.60;;;17.10;99.90;;;;;;5118539;28;20449;-74
2022/09/04 06:35:35;;;;;;;1.20;0.60;;;17.10;99.90;;;;;;5117151;28;20445;-73
2022/09/04 06:38:13;;;;;;;1.00;0.60;;;17.10;99.90;;;;;;5117449;28;20866;-74
2022/09/04 06:41:00;;;;;;;0.80;0.53;;;17.20;99.90;;;;;;5115871;28;20447;-74
2022/09/04 06:43:36;;;;;;;0.90;0.60;;;17.30;99.90;;;;;;5117637;28;20478;-74
2022/09/04 06:46:20;;;;;;;2.63;0.60;;;17.40;99.90;;;;;;5116270;28;20452;-73
2022/09/04 06:48:59;;;;;;;1.00;0.70;;;17.40;99.90;;;;;;5117857;28;20480;-74
2022/09/04 06:51:49;;;;;;;0.80;0.60;;;17.50;99.90;;;;;;5116727;28;20456;-73
2022/09/04 06:54:28;;;;;;;1.00;0.70;;;17.50;99.90;;;;;;5117951;28;20455;-74
2022/09/04 06:57:19;;;;;;;1.20;0.70;;;17.70;99.90;;;;;;5115440;28;20891;-74
2022/09/04 06:59:59;;;;;;;0.90;0.60;;;17.80;99.90;;;;;;5116849;28;20461;-74
2022/09/04 07:02:43;;;;;;;0.90;0.60;;;17.90;99.90;;;;;;5116106;28;20460;-73
2022/09/04 07:05:19;;;;;;;0.90;0.70;;;18.00;99.90;;;;;;5117677;28;20535;-74
2022/09/04 07:07:56;;;;;;;1.03;0.67;;;18.10;99.90;;;;;;5116212;28;20786;-73
2022/09/04 07:10:28;;;;;;;0.90;0.60;;;18.20;99.90;;;;;;5117945;28;20444;-74
2022/09/04 07:13:24;;;;;;;3.73;0.70;;;18.30;99.90;;;;;;5118230;28;20470;-74
2022/09/04 07:16:23;;;;;;;1.00;0.80;;;18.30;99.90;;;;;;5116378;28;20460;-74
2022/09/04 07:19:19;;;;;;;0.90;0.70;;;18.40;99.90;;;;;;5118642;28;20449;-74
2022/09/04 07:22:00;;;;;;;1.50;0.63;;;18.50;99.90;;;;;;5086346;28;20544;-74
2022/09/04 07:24:49;;;;;;;1.47;0.60;;;18.70;99.90;;;;;;5118247;28;20436;-74
2022/09/04 07:27:27;;;;;;;0.80;0.60;;;18.80;99.90;;;;;;5115778;28;20487;-74
2022/09/04 07:30:00;;;;;;;1.87;0.67;;;18.80;99.90;;;;;;5117201;28;20480;-74
2022/09/04 07:32:36;;;;;;;0.83;0.60;;;18.90;99.90;;;;;;5116851;28;20453;-74
2022/09/04 07:35:10;;;;;;;1.77;0.70;;;19.00;99.90;;;;;;5115460;28;20501;-74
2022/09/04 07:37:45;;;;;;;1.43;0.60;;;19.00;99.90;;;;;;5101994;28;20533;-74
2022/09/04 07:40:17;;;;;;;0.73;0.40;;;19.10;99.90;;;;;;5099432;28;20447;-75
2022/09/04 07:42:49;;;;;;;1.20;0.70;;;19.20;99.90;;;;;;5106448;28;20460;-75
2022/09/04 07:45:29;;;;;;;1.30;0.53;;;19.40;99.90;;;;;;5096931;28;20446;-73
2022/09/04 07:48:23;;;;;;;0.80;0.50;;;19.60;99.90;;;;;;5096282;28;20449;-73
2022/09/04 07:51:03;;;;;;;1.47;0.63;;;19.70;99.90;;;;;;5094382;28;20437;-73
2022/09/04 07:54:06;;;;;;;1.50;0.57;;;19.90;99.90;;;;;;5102037;28;20453;-74
2022/09/04 07:56:56;;;;;;;0.63;0.50;;;20.10;99.90;;;;;;5102249;28;20461;-73
2022/09/04 07:59:52;;;;;;;0.70;0.47;;;20.20;99.90;;;;;;5100652;28;20437;-74
2022/09/04 08:02:36;;;;;;;0.90;0.60;;;20.40;99.90;;;;;;5085843;28;20448;-75
2022/09/04 08:05:22;;;;;;;0.80;0.70;;;20.50;99.90;;;;;;5108935;28;20903;-75
2022/09/04 08:08:15;;;;;;;1.07;0.70;;;20.50;99.90;;;;;;5096133;28;20474;-74
2022/09/04 08:10:59;;;;;;;0.90;0.60;;;20.60;99.90;;;;;;5095798;28;20748;-75
2022/09/04 08:13:54;;;;;;;0.80;0.50;;;20.70;99.90;;;;;;5106143;28;20876;-75
2022/09/04 08:16:30;;;;;;;0.70;0.40;;;20.70;99.90;;;;;;5101116;28;20449;-74
2022/09/04 08:19:19;;;;;;;1.27;0.50;;;20.80;99.90;;;;;;5096570;28;20931;-74
2022/09/04 08:21:48;;;;;;;0.80;0.60;;;21.00;91.80;;;;;;5096357;28;20536;-75
2022/09/04 08:24:45;;;;;;;1.13;0.60;;;21.10;93.40;;;;;;5096627;28;20514;-74
2022/09/04 08:27:27;;;;;;;0.90;0.60;;;21.30;76.40;;;;;;5111752;28;20829;-74
2022/09/04 08:30:03;;;;;;;1.37;0.57;;;21.50;58.00;;;;;;5116731;28;20477;-74
2022/09/04 08:33:07;;;;;;;0.97;0.90;;;21.70;53.00;;;;;;5116418;28;20464;-74
2022/09/04 08:35:36;;;;;;;1.10;1.00;;;21.70;27.60;;;;;;5102887;28;20449;-74
2022/09/04 08:38:32;;;;;;;1.00;0.60;;;22.00;22.80;;;;;;5103140;28;20873;-74
2022/09/04 08:41:30;;;;;;;0.60;0.40;;;22.00;2.20;;;;;;5118357;28;20449;-75
2022/09/04 08:44:26;;;;;;;0.73;0.50;;;21.90;11.70;;;;;;5121323;28;20896;-74
2022/09/04 08:47:43;;;;;;;1.77;0.50;;;21.90;30.00;;;;;;5101829;28;20464;-75
2022/09/04 08:50:28;;;;;;;0.80;0.50;;;22.10;10.60;;;;;;5100568;28;20943;-74
2022/09/04 08:53:24;;;;;;;0.70;0.50;;;22.20;3.10;;;;;;5105880;28;20543;-73
2022/09/04 08:56:06;;;;;;;0.70;0.50;;;22.20;1.00;;;;;;5108270;27;20870;-73
2022/09/04 08:58:59;;;;;;;0.80;0.50;;;22.50;1.00;;;;;;5110264;27;20747;-74
2022/09/04 09:02:02;;;;;;;0.57;0.40;;;22.50;1.00;;;;;;5120960;27;20477;-74
2022/09/04 09:04:56;;;;;;;0.80;0.40;;;22.40;1.00;;;;;;5102622;27;20460;-74
2022/09/04 09:07:57;;;;;;;0.80;0.47;;;22.40;1.00;;;;;;5128114;27;20564;-74
2022/09/04 09:11:00;;;;;;;0.70;0.43;;;22.30;1.00;;;;;;5114141;27;20468;-74
2022/09/04 09:14:03;;;;;;;1.30;0.40;;;22.10;1.00;;;;;;5115829;27;20452;-74
2022/09/04 09:16:42;;;;;;;1.47;1.37;;;21.90;1.00;;;;;;5054596;28;20507;-73
2022/09/04 09:19:21;;;;;;;0.50;0.37;;;21.80;5.50;;;;;;5109403;28;20552;-73
2022/09/04 09:22:08;;;;;;;0.70;0.40;;;21.60;1.00;;;;;;5124414;27;20444;-73
2022/09/04 09:25:11;;;;;;;0.50;0.30;;;21.60;1.00;;;;;;5113975;27;20453;-73
2022/09/04 09:28:32;;;;;;;0.50;0.37;;;21.50;1.00;;;;;;5049853;28;20443;-73
2022/09/04 09:31:42;;;;;;;0.50;0.30;;;21.70;1.00;;;;;;5115317;27;20544;-73
2022/09/04 09:34:45;;;;;;;0.90;0.43;;;21.80;1.00;;;;;;5036347;27;20464;-74
2022/09/04 09:37:54;;;;;;;2.10;1.10;;;21.90;1.00;;;;;;5129606;27;20539;-74
2022/09/04 09:40:54;;;;;;;0.60;0.43;;;21.90;1.00;;;;;;5103802;27;20455;-74
2022/09/04 09:43:46;;;;;;;0.70;0.40;;;22.10;1.00;;;;;;5134886;27;20440;-73
2022/09/04 09:46:45;;;;;;;0.50;0.30;;;22.40;1.00;;;;;;5113338;27;20428;-74
2022/09/04 09:49:51;;;;;;;0.50;0.37;;;22.60;1.00;;;;;;5127905;27;20544;-73
2022/09/04 09:52:52;;;;;;;0.43;0.30;;;22.70;1.00;;;;;;5125048;27;20444;-74
2022/09/04 09:56:12;;;;;;;0.80;0.50;;;23.00;1.00;;;;;;5100264;27;20905;-74
2022/09/04 09:59:02;;;;;;;0.60;0.47;;;23.30;1.00;;;;;;5117453;27;20879;-74
2022/09/04 10:01:56;;;;;;;0.50;0.30;;;23.70;99.90;;;;;;5129784;27;20488;-73
2022/09/04 10:04:46;;;;;;;0.50;0.40;;;23.90;99.90;;;;;;5118087;27;20543;-73
2022/09/04 10:07:44;;;;;;;0.83;0.33;;;24.30;1.00;;;;;;5117805;28;20525;-74
2022/09/04 10:10:54;;;;;;;0.47;0.30;;;24.70;99.90;;;;;;5114539;28;20477;-74
2022/09/04 10:14:08;;;;;;;0.80;0.40;;;25.00;99.90;;;;;;5098195;28;20517;-74
2022/09/04 10:17:09;;;;;;;0.70;0.30;;;25.10;99.90;;;;;;5082222;28;20541;-74
2022/09/04 10:20:02;;;;;;;0.70;0.40;;;25.10;99.90;;;;;;5090122;28;20438;-74
2022/09/04 10:22:47;;;;;;;0.50;0.40;;;25.00;99.90;;;;;;5096934;28;20506;-74
2022/09/04 10:25:43;;;;;;;0.50;0.30;;;24.70;1.00;;;;;;5097254;28;20496;-74
2022/09/04 10:28:46;;;;;;;0.80;0.30;;;24.50;1.00;;;;;;5093104;28;20480;-75
2022/09/04 10:31:52;;;;;;;0.70;0.37;;;24.30;99.90;;;;;;5096980;28;20445;-75
2022/09/04 10:34:53;;;;;;;0.60;0.37;;;24.60;1.00;;;;;;5096635;28;20506;-75
2022/09/04 10:37:41;;;;;;;1.37;0.30;;;25.20;1.00;;;;;;5097685;28;20522;-75
2022/09/04 10:40:37;;;;;;;0.50;0.37;;;25.40;1.00;;;;;;5096468;28;20503;-74
2022/09/04 10:43:34;;;;;;;0.50;0.40;;;25.70;1.00;;;;;;5098392;28;20936;-74
2022/09/04 10:46:10;;;;;;;0.70;0.40;;;25.80;99.90;;;;;;5098106;28;20524;-74
2022/09/04 10:49:25;;;;;;;0.50;0.30;;;26.00;1.00;;;;;;5098267;28;20445;-74
2022/09/04 10:52:30;;;;;;;0.60;0.40;;;26.10;99.90;;;;;;5035754;28;20455;-74
2022/09/04 10:55:26;;;;;;;0.70;0.40;;;25.90;99.90;;;;;;5095092;28;20461;-74
2022/09/04 10:58:14;;;;;;;0.70;0.37;;;25.30;99.90;;;;;;5080559;28;20453;-73
2022/09/04 11:00:54;;;;;;;2.50;0.50;;;25.30;1.00;;;;;;5095863;28;20506;-73
2022/09/04 11:03:43;;;;;;;0.93;0.40;;;25.40;1.00;;;;;;5097981;28;20441;-73
2022/09/04 11:06:43;;;;;;;0.40;0.30;;;25.60;99.90;;;;;;5097037;28;20445;-74
2022/09/04 11:09:42;;;;;;;0.60;0.40;;;25.80;99.90;;;;;;5054756;28;20489;-73
2022/09/04 11:12:39;;;;;;;0.60;0.40;;;26.00;14.20;;;;;;5078947;28;20457;-73
2022/09/04 11:15:34;;;;;;;0.53;0.33;;;25.80;1.00;;;;;;5087080;28;20555;-74
2022/09/04 11:18:26;;;;;;;1.00;0.50;;;26.20;31.30;;;;;;5074415;28;20524;-74
2022/09/04 11:21:48;;;;;;;0.40;0.30;;;26.70;24.70;;;;;;5094528;28;20453;-74
2022/09/04 11:24:58;;;;;;;0.50;0.40;;;27.20;1.00;;;;;;5057198;28;20888;-74
2022/09/04 11:28:07;;;;;;;1.33;0.40;;;26.50;1.00;;;;;;5092011;28;20458;-74
2022/09/04 11:31:01;;;;;;;0.60;0.30;;;26.50;1.00;;;;;;5037157;28;20493;-74
2022/09/04 11:34:06;;;;;;;0.60;0.40;;;27.00;1.00;;;;;;5094443;28;20477;-74
2022/09/04 11:36:59;;;;;;;0.40;0.30;;;27.30;1.00;;;;;;5095057;28;20457;-74
2022/09/04 11:39:54;;;;;;;0.50;0.30;;;26.90;1.00;;;;;;5096211;28;20441;-76
2022/09/04 11:42:31;;;;;;;0.60;0.30;;;26.80;1.00;;;;;;5096398;28;20442;-76
2022/09/04 11:45:32;;;;;;;0.40;0.40;;;26.40;1.00;;;;;;5096073;28;20926;-76
2022/09/04 11:48:41;;;;;;;0.73;0.30;;;26.10;1.00;;;;;;5076207;28;20453;-74
2022/09/04 11:51:36;;;;;;;1.90;0.50;;;25.80;1.00;;;;;;5098305;28;20924;-76
2022/09/04 11:54:34;;;;;;;0.50;0.30;;;25.70;1.00;;;;;;5116645;28;20747;-75
2022/09/04 11:57:23;;;;;;;0.63;0.40;;;25.70;1.00;;;;;;5104261;28;20444;-74
2022/09/04 12:00:11;;;;;;;0.50;0.30;;;25.40;1.00;;;;;;5117164;28;20448;-75
2022/09/04 12:03:29;;;;;;;0.73;0.40;;;25.20;1.40;;;;;;5115841;28;20539;-75
2022/09/04 12:06:31;;;;;;;0.40;0.30;;;25.20;1.00;;;;;;5029698;28;20452;-76
2022/09/04 12:09:53;;;;;;;0.60;0.40;;;25.20;9.90;;;;;;5037256;28;20479;-75
2022/09/04 12:12:50;;;;;;;0.60;0.30;;;25.20;1.00;;;;;;5118697;28;20448;-76
2022/09/04 12:16:06;;;;;;;0.50;0.40;;;25.40;1.00;;;;;;5118224;28;20456;-75
2022/09/04 12:19:01;;;;;;;0.40;0.30;;;25.70;1.00;;;;;;5036525;28;20478;-75
2022/09/04 12:21:55;;;;;;;0.93;0.30;;;25.80;1.00;;;;;;5038044;28;20502;-77
2022/09/04 12:24:48;;;;;;;0.70;0.47;;;25.90;1.00;;;;;;5052874;28;20458;-73
2022/09/04 12:27:43;;;;;;;0.57;0.30;;;26.30;1.00;;;;;;5093652;28;20499;-76
2022/09/04 12:30:18;;;;;;;0.57;0.30;;;26.80;1.00;;;;;;5113575;28;20476;-76
2022/09/04 12:33:41;;;;;;;0.50;0.30;;;27.20;1.00;;;;;;5100902;28;20437;-75
2022/09/04 12:36:35;;;;;;;0.80;0.30;;;27.70;1.00;;;;;;5101166;28;20464;-75
2022/09/04 12:39:33;;;;;;;0.70;0.40;;;27.90;1.00;;;;;;5103083;28;20889;-76
2022/09/04 12:42:07;;;;;;;0.60;0.30;;;27.70;1.00;;;;;;5114035;28;20918;-76
2022/09/04 12:44:49;;;;;;;0.50;0.40;;;27.80;1.00;;;;;;5101464;28;20954;-75
2022/09/04 12:47:34;;;;;;;0.50;0.40;;;27.80;1.00;;;;;;5102306;28;20547;-75
2022/09/04 12:50:29;;;;;;;0.60;0.40;;;27.60;1.00;;;;;;5108165;28;20477;-75
2022/09/04 12:53:24;;;;;;;0.50;0.33;;;27.70;1.00;;;;;;5091263;28;20457;-76
2022/09/04 12:56:08;;;;;;;0.87;0.53;;;27.50;1.00;;;;;;5080351;28;20895;-77
2022/09/04 12:58:55;;;;;;;0.60;0.40;;;27.60;1.00;;;;;;5104235;28;20557;-74
2022/09/04 13:01:35;;;;;;;1.13;0.40;;;27.30;1.00;;;;;;5100015;28;20441;-77
2022/09/04 13:04:11;;;;;;;0.60;0.40;;;27.10;1.00;;;;;;5100250;28;20449;-75
2022/09/04 13:06:47;;;;;;;0.57;0.40;;;27.00;1.00;;;;;;5099819;28;20484;-74
2022/09/04 13:09:22;;;;;;;1.03;0.37;;;27.20;1.00;;;;;;5119924;28;20875;-74
2022/09/04 13:12:03;;;;;;;1.00;0.60;;;27.30;1.00;;;;;;5115158;28;20533;-75
2022/09/04 13:15:03;;;;;;;0.87;0.40;;;27.40;1.00;;;;;;5112230;28;20970;-73
2022/09/04 13:17:42;;;;;;;0.50;0.40;;;27.50;1.00;;;;;;5117267;28;20453;-73
2022/09/04 13:20:18;;;;;;;0.50;0.30;;;27.60;1.00;;;;;;5114675;28;20448;-74
2022/09/04 13:23:03;;;;;;;0.40;0.30;;;27.60;1.00;;;;;;5117044;28;20541;-75
2022/09/04 13:25:41;;;;;;;0.40;0.37;;;26.90;1.00;;;;;;5101899;28;20449;-74
2022/09/04 13:28:22;;;;;;;0.40;0.40;;;27.00;1.00;;;;;;5104508;28;20864;-74
2022/09/04 13:30:58;;;;;;;0.70;0.33;;;27.00;1.00;;;;;;5103796;28;20474;-74
2022/09/04 13:33:43;;;;;;;0.40;0.30;;;27.10;1.00;;;;;;5113126;28;20534;-74
2022/09/04 13:36:26;;;;;;;0.40;0.30;;;27.10;1.00;;;;;;5099772;28;20549;-74
2022/09/04 13:39:26;;;;;;;0.50;0.30;;;26.90;1.00;;;;;;5103838;28;20509;-74
2022/09/04 13:42:23;;;;;;;0.50;0.40;;;26.80;1.00;;;;;;5100893;28;20445;-74
2022/09/04 13:45:11;;;;;;;0.50;0.30;;;26.50;1.00;;;;;;5108059;28;20946;-74
2022/09/04 13:47:49;;;;;;;0.53;0.40;;;26.00;1.00;;;;;;5100575;28;20822;-73
2022/09/04 13:50:21;;;;;;;0.60;0.40;;;26.00;1.00;;;;;;5113516;28;20495;-74
2022/09/04 13:52:54;;;;;;;0.50;0.30;;;25.80;1.00;;;;;;5112313;28;20484;-75
2022/09/04 13:55:24;;;;;;;0.60;0.30;;;25.70;1.00;;;;;;5118468;28;20451;-74
2022/09/04 13:57:59;;;;;;;0.67;0.40;;;25.50;1.00;;;;;;5099596;28;20901;-74
2022/09/04 14:00:30;;;;;;;0.67;0.40;;;25.50;1.00;;;;;;5105836;28;21064;-72
2022/09/04 14:03:07;;;;;;;0.40;0.30;;;25.60;1.00;;;;;;5110956;28;20934;-74
2022/09/04 14:05:37;;;;;;;0.50;0.40;;;25.70;1.00;;;;;;5118442;28;20494;-73
2022/09/04 14:08:09;;;;;;;0.50;0.30;;;25.90;1.00;;;;;;5117362;28;20484;-73
2022/09/04 14:11:01;;;;;;;0.50;0.37;;;26.10;1.00;;;;;;5117708;28;20545;-74
2022/09/04 14:13:42;;;;;;;0.50;0.33;;;26.10;1.00;;;;;;5116866;28;20452;-74
2022/09/04 14:16:13;;;;;;;0.50;0.30;;;26.10;1.00;;;;;;5117747;28;20476;-74
2022/09/04 14:19:03;;;;;;;0.60;0.40;;;25.90;1.00;;;;;;5117092;28;20559;-74
2022/09/04 14:21:40;;;;;;;1.00;0.50;;;25.80;1.00;;;;;;5116887;28;20743;-73
2022/09/04 14:24:14;;;;;;;0.80;0.33;;;25.90;1.00;;;;;;5118529;28;20448;-74
2022/09/04 14:26:49;;;;;;;0.80;0.30;;;26.00;1.00;;;;;;5118007;28;20907;-74